Time;durP1;ratioP1;P1;durP2;ratioP2;P2;SDS_P1;SDS_P2;PMS_P1;PMS_P2;Temp;Humidity;BMP_temperature;BMP_pressure;BME280_temperature;BME280_humidity;BME280_pressure;Samples;Min_cycle;Max_cycle;Signal;HPM_P1;HPM_P2
2021/12/13 00:02:15;;;;;;;1.98;1.17;;;17.30;67.70;;;;;;5032645;28;20532;-27
2021/12/13 00:04:57;;;;;;;1.97;1.00;;;17.20;67.70;;;;;;5051255;28;20027;-26
2021/12/13 00:07:28;;;;;;;1.25;1.15;;;17.20;67.90;;;;;;5054377;28;20028;-30
2021/12/13 00:09:56;;;;;;;2.53;0.90;;;17.20;67.80;;;;;;5055688;28;20020;-24
2021/12/13 00:12:28;;;;;;;1.98;1.50;;;17.20;67.90;;;;;;5055899;28;20052;-29
2021/12/13 00:14:54;;;;;;;1.65;1.55;;;17.20;68.00;;;;;;5055418;28;20053;-25
2021/12/13 00:17:23;;;;;;;3.92;0.95;;;17.20;68.00;;;;;;5038313;28;20091;-29
2021/12/13 00:19:51;;;;;;;1.50;0.82;;;17.20;67.90;;;;;;5055896;28;20025;-24
2021/12/13 00:22:37;;;;;;;1.02;0.93;;;17.20;67.80;;;;;;5033987;28;20087;-24
2021/12/13 00:25:12;;;;;;;1.40;1.30;;;17.20;67.90;;;;;;5051930;28;20032;-31
2021/12/13 00:27:43;;;;;;;1.08;1.00;;;17.20;67.90;;;;;;5037414;28;20504;-27
2021/12/13 00:30:40;;;;;;;0.82;0.82;;;17.20;67.80;;;;;;5037791;28;20032;-27
2021/12/13 00:33:26;;;;;;;1.15;0.90;;;17.10;67.90;;;;;;5065546;28;20068;-30
2021/12/13 00:36:07;;;;;;;2.28;1.00;;;17.20;68.00;;;;;;5079847;28;20056;-23
2021/12/13 00:38:40;;;;;;;1.63;1.10;;;17.20;67.80;;;;;;5056684;28;20044;-29
2021/12/13 00:41:12;;;;;;;1.10;1.05;;;17.20;67.80;;;;;;5049785;28;20216;-27
2021/12/13 00:43:44;;;;;;;1.98;0.93;;;17.20;67.80;;;;;;5049708;28;20577;-28
2021/12/13 00:46:10;;;;;;;2.22;0.82;;;17.20;67.90;;;;;;5041533;28;20032;-22
2021/12/13 00:48:38;;;;;;;0.88;0.88;;;17.20;67.90;;;;;;5041492;28;20053;-27
2021/12/13 00:51:07;;;;;;;0.90;0.90;;;17.20;67.90;;;;;;5059304;28;20043;-27
2021/12/13 00:53:34;;;;;;;1.35;1.00;;;17.20;68.00;;;;;;5059355;28;20025;-24
2021/12/13 00:56:00;;;;;;;1.75;0.98;;;17.10;67.90;;;;;;5059475;28;20029;-24
2021/12/13 00:58:26;;;;;;;0.82;0.80;;;17.10;68.00;;;;;;5059599;28;20095;-28
2021/12/13 01:00:56;;;;;;;1.00;0.75;;;17.10;68.00;;;;;;5041037;28;20033;-23
2021/12/13 01:03:33;;;;;;;1.90;0.70;;;17.10;68.00;;;;;;5059029;28;20029;-28
2021/12/13 01:06:28;;;;;;;1.00;0.90;;;17.10;67.90;;;;;;5059354;28;20025;-29
2021/12/13 01:09:32;;;;;;;1.27;0.80;;;17.10;67.90;;;;;;5059223;28;20020;-31
2021/12/13 01:12:00;;;;;;;0.85;0.65;;;17.10;67.90;;;;;;5074551;28;20025;-24
2021/12/13 01:14:31;;;;;;;0.65;0.65;;;17.10;67.90;;;;;;5059223;28;20035;-27
2021/12/13 01:19:46;;;;;;;0.90;0.80;;;17.10;67.90;;;;;;5058980;28;20029;-29
2021/12/13 01:28:10;;;;;;;0.82;0.82;;;17.10;67.80;;;;;;5058798;28;20105;-24
2021/12/13 01:30:40;;;;;;;0.70;0.70;;;17.10;67.80;;;;;;5058524;28;20028;-30
2021/12/13 01:33:07;;;;;;;0.80;0.80;;;17.10;67.70;;;;;;5064425;28;20040;-29
2021/12/13 01:35:36;;;;;;;0.77;0.77;;;17.10;67.80;;;;;;5060993;28;20036;-27
2021/12/13 01:38:06;;;;;;;1.00;0.75;;;17.10;67.80;;;;;;5078598;28;20024;-28
2021/12/13 01:40:33;;;;;;;1.45;0.60;;;17.10;67.90;;;;;;5077478;28;20531;-22
2021/12/13 01:43:14;;;;;;;0.88;0.73;;;17.10;67.80;;;;;;5078546;28;20023;-24
2021/12/13 01:45:40;;;;;;;0.63;0.60;;;17.10;67.70;;;;;;5060558;28;20047;-30
2021/12/13 01:48:07;;;;;;;0.90;0.90;;;17.10;67.90;;;;;;5078554;28;20590;-26
2021/12/13 01:50:47;;;;;;;0.68;0.63;;;17.00;67.80;;;;;;5060236;28;20036;-27
2021/12/13 01:53:12;;;;;;;2.38;0.50;;;17.00;67.80;;;;;;5078398;28;20021;-28
2021/12/13 01:55:40;;;;;;;0.60;0.57;;;17.00;67.90;;;;;;5078661;28;20028;-24
2021/12/13 01:58:41;;;;;;;0.60;0.60;;;17.00;67.80;;;;;;5060897;28;20052;-25
2021/12/13 02:01:11;;;;;;;0.82;0.82;;;17.00;67.80;;;;;;5070426;28;20037;-25
2021/12/13 02:03:43;;;;;;;1.02;0.70;;;17.10;67.70;;;;;;5049842;28;20032;-25
2021/12/13 02:06:09;;;;;;;0.65;0.60;;;17.10;67.70;;;;;;5046188;28;20029;-28
2021/12/13 02:08:34;;;;;;;0.70;0.70;;;17.10;67.90;;;;;;5050511;28;20025;-24
2021/12/13 02:11:00;;;;;;;0.50;0.50;;;17.10;67.90;;;;;;5057873;28;20078;-23
2021/12/13 02:13:27;;;;;;;0.60;0.60;;;17.00;67.80;;;;;;5057003;28;20110;-30
2021/12/13 02:18:42;;;;;;;0.95;0.70;;;17.00;67.90;;;;;;5058499;28;20168;-27
2021/12/13 02:21:22;;;;;;;0.63;0.60;;;17.10;67.90;;;;;;5058161;28;20505;-27
2021/12/13 02:23:49;;;;;;;0.60;0.60;;;17.10;67.90;;;;;;5058314;28;20025;-29
2021/12/13 02:26:15;;;;;;;1.73;0.55;;;17.00;67.80;;;;;;5058534;28;20036;-30
2021/12/13 02:28:42;;;;;;;0.80;0.80;;;17.00;67.90;;;;;;5058384;28;20021;-26
2021/12/13 02:31:16;;;;;;;0.60;0.60;;;17.00;68.00;;;;;;5058052;28;20052;-24
2021/12/13 02:33:46;;;;;;;0.45;0.45;;;17.00;68.00;;;;;;5069052;28;20017;-30
2021/12/13 02:36:12;;;;;;;0.50;0.50;;;17.00;68.00;;;;;;5077203;28;20128;-31
2021/12/13 02:38:39;;;;;;;0.60;0.60;;;17.00;67.90;;;;;;5078252;28;20021;-23
2021/12/13 02:41:05;;;;;;;0.60;0.60;;;17.00;68.10;;;;;;5078342;28;20496;-27
2021/12/13 02:43:34;;;;;;;0.70;0.70;;;17.00;68.10;;;;;;5078277;28;20021;-30
2021/12/13 02:45:59;;;;;;;0.68;0.68;;;17.00;68.00;;;;;;5077772;28;20084;-26
2021/12/13 02:48:38;;;;;;;0.90;0.90;;;17.00;68.00;;;;;;5077920;28;20586;-24
2021/12/13 02:51:07;;;;;;;0.60;0.60;;;17.00;68.10;;;;;;5077377;28;20059;-26
2021/12/13 02:53:39;;;;;;;0.45;0.45;;;17.00;68.20;;;;;;5077906;28;20389;-22
2021/12/13 02:56:05;;;;;;;0.60;0.60;;;17.00;68.20;;;;;;5077891;28;20024;-27
2021/12/13 02:58:31;;;;;;;0.50;0.50;;;17.00;68.20;;;;;;5077846;28;20104;-25
2021/12/13 03:01:10;;;;;;;0.60;0.60;;;17.00;68.20;;;;;;5072097;28;20053;-25
2021/12/13 03:03:39;;;;;;;0.70;0.70;;;16.90;68.20;;;;;;5057278;28;20067;-26
2021/12/13 03:06:07;;;;;;;0.43;0.43;;;16.90;68.20;;;;;;5057538;28;20029;-23
2021/12/13 03:08:37;;;;;;;0.60;0.60;;;16.90;68.40;;;;;;5057472;28;20542;-27
2021/12/13 03:11:06;;;;;;;0.70;0.70;;;16.90;68.40;;;;;;5057491;28;20112;-22
2021/12/13 03:13:32;;;;;;;0.55;0.55;;;16.90;68.40;;;;;;5057458;28;20021;-26
2021/12/13 03:16:18;;;;;;;0.60;0.60;;;16.90;68.30;;;;;;5057238;28;20397;-27
2021/12/13 03:19:08;;;;;;;0.70;0.70;;;16.90;68.40;;;;;;5057546;28;20393;-28
2021/12/13 03:21:49;;;;;;;0.63;0.60;;;16.90;68.40;;;;;;5057565;28;20058;-28
2021/12/13 03:24:31;;;;;;;0.80;0.80;;;16.90;68.00;;;;;;5040009;28;20025;-29
2021/12/13 03:27:12;;;;;;;0.40;0.40;;;16.90;68.30;;;;;;5049013;28;20029;-26
2021/12/13 03:29:53;;;;;;;0.50;0.50;;;16.90;68.40;;;;;;5030316;28;20474;-31
2021/12/13 03:32:20;;;;;;;0.60;0.60;;;17.00;68.30;;;;;;5037335;28;20017;-25
2021/12/13 03:35:05;;;;;;;0.60;0.60;;;17.00;67.90;;;;;;5058901;28;20036;-32
2021/12/13 03:37:31;;;;;;;0.60;0.60;;;16.90;68.10;;;;;;5043214;28;20104;-32
2021/12/13 03:40:00;;;;;;;0.57;0.57;;;17.00;68.20;;;;;;5049596;28;20028;-22
2021/12/13 03:42:29;;;;;;;0.68;0.68;;;16.90;68.30;;;;;;5045135;28;20490;-31
2021/12/13 03:44:57;;;;;;;0.60;0.60;;;16.90;68.40;;;;;;5051281;28;20020;-25
2021/12/13 03:47:26;;;;;;;0.47;0.47;;;16.90;68.40;;;;;;5044468;28;20108;-30
2021/12/13 03:49:56;;;;;;;0.73;0.73;;;17.00;68.00;;;;;;5046588;28;20045;-35
2021/12/13 03:52:24;;;;;;;0.70;0.70;;;16.90;68.00;;;;;;5045953;28;20120;-31
2021/12/13 03:54:50;;;;;;;0.60;0.60;;;16.90;68.20;;;;;;5049074;28;20021;-26
2021/12/13 03:57:17;;;;;;;1.67;0.60;;;16.90;68.10;;;;;;5036905;28;20091;-25
2021/12/13 03:59:42;;;;;;;0.70;0.70;;;16.90;68.40;;;;;;5044224;28;20050;-26
2021/12/13 04:02:16;;;;;;;0.50;0.50;;;16.90;68.50;;;;;;5049209;28;20051;-26
2021/12/13 04:04:48;;;;;;;1.17;0.60;;;16.90;68.40;;;;;;5046802;28;20029;-23
2021/12/13 04:07:21;;;;;;;0.50;0.50;;;16.90;68.30;;;;;;5053753;28;20040;-34
2021/12/13 04:09:50;;;;;;;0.70;0.50;;;16.90;68.30;;;;;;5049054;28;20017;-25
2021/12/13 04:12:16;;;;;;;0.40;0.40;;;16.90;68.40;;;;;;5050661;28;20029;-29
2021/12/13 04:14:51;;;;;;;0.68;0.68;;;16.90;68.40;;;;;;5046125;28;20489;-25
2021/12/13 04:17:37;;;;;;;0.52;0.50;;;16.90;68.30;;;;;;5050251;28;20108;-32
2021/12/13 04:20:13;;;;;;;0.40;0.40;;;16.90;68.10;;;;;;5052931;28;20032;-28
2021/12/13 04:22:39;;;;;;;0.60;0.60;;;16.90;68.20;;;;;;5052054;28;20029;-26
2021/12/13 04:25:08;;;;;;;0.60;0.60;;;16.90;68.30;;;;;;5036942;28;20070;-25
2021/12/13 04:28:05;;;;;;;2.05;0.50;;;16.90;68.20;;;;;;5046661;28;20016;-30
2021/12/13 04:30:38;;;;;;;0.50;0.50;;;16.90;68.40;;;;;;5050527;28;20108;-28
2021/12/13 04:33:10;;;;;;;0.40;0.40;;;16.80;68.40;;;;;;5048811;28;20035;-30
2021/12/13 04:35:35;;;;;;;0.40;0.40;;;16.80;68.40;;;;;;5054893;28;20090;-28
2021/12/13 04:38:03;;;;;;;0.40;0.40;;;16.90;68.50;;;;;;5055514;28;20431;-29
2021/12/13 04:40:30;;;;;;;0.50;0.50;;;16.80;68.40;;;;;;5055334;28;20044;-27
2021/12/13 04:43:00;;;;;;;0.70;0.60;;;16.90;68.50;;;;;;5049033;28;20044;-27
2021/12/13 04:45:26;;;;;;;0.50;0.50;;;16.90;68.20;;;;;;5040274;28;20065;-29
2021/12/13 04:47:58;;;;;;;0.50;0.50;;;16.90;68.20;;;;;;5017891;28;20022;-26
2021/12/13 04:50:29;;;;;;;0.50;0.50;;;16.80;68.30;;;;;;5035308;28;20037;-26
2021/12/13 04:52:56;;;;;;;0.60;0.60;;;16.80;69.00;;;;;;5035407;28;20024;-27
2021/12/13 04:55:34;;;;;;;0.50;0.50;;;16.90;68.30;;;;;;5035639;28;20056;-30
2021/12/13 04:58:01;;;;;;;1.55;0.50;;;16.90;68.20;;;;;;5035460;28;20052;-30
2021/12/13 05:00:31;;;;;;;0.40;0.40;;;16.80;68.20;;;;;;5037410;28;20123;-29
2021/12/13 05:02:58;;;;;;;0.52;0.52;;;16.90;68.30;;;;;;5056076;28;20394;-27
2021/12/13 05:05:24;;;;;;;0.40;0.40;;;16.80;68.20;;;;;;5055905;28;20025;-24
2021/12/13 05:07:50;;;;;;;0.40;0.40;;;16.80;68.20;;;;;;5056148;28;20083;-27
2021/12/13 05:10:16;;;;;;;0.50;0.50;;;16.90;68.90;;;;;;5055825;28;20378;-27
2021/12/13 05:12:50;;;;;;;0.40;0.40;;;16.80;68.80;;;;;;5055937;28;20159;-31
2021/12/13 05:15:15;;;;;;;0.60;0.60;;;16.80;68.20;;;;;;5035009;28;20072;-28
2021/12/13 05:17:45;;;;;;;0.45;0.45;;;16.80;68.10;;;;;;5023233;28;20033;-34
2021/12/13 05:20:20;;;;;;;0.50;0.50;;;16.80;68.10;;;;;;5039672;28;20044;-30
2021/12/13 05:22:50;;;;;;;0.68;0.68;;;16.90;68.10;;;;;;5039656;28;20017;-30
2021/12/13 05:25:27;;;;;;;0.52;0.52;;;16.80;68.20;;;;;;5039640;28;20037;-24
2021/12/13 05:27:58;;;;;;;0.50;0.50;;;16.80;68.20;;;;;;5039641;28;20017;-27
2021/12/13 05:30:24;;;;;;;0.40;0.40;;;16.80;67.90;;;;;;5039270;28;20021;-25
2021/12/13 05:32:56;;;;;;;0.50;0.50;;;16.80;68.00;;;;;;5046867;28;20017;-25
2021/12/13 05:35:23;;;;;;;0.50;0.50;;;16.80;68.20;;;;;;5079337;28;20028;-28
2021/12/13 05:37:52;;;;;;;0.50;0.50;;;16.80;68.20;;;;;;5079119;28;20020;-31
2021/12/13 05:40:39;;;;;;;0.52;0.52;;;16.80;68.10;;;;;;5079523;28;20024;-27
2021/12/13 05:43:22;;;;;;;0.50;0.50;;;16.80;68.00;;;;;;5079161;28;20021;-24
2021/12/13 05:45:59;;;;;;;0.60;0.60;;;16.80;68.00;;;;;;5050053;28;20041;-24
2021/12/13 05:48:41;;;;;;;0.50;0.50;;;16.80;67.90;;;;;;5039071;28;20054;-29
2021/12/13 05:51:18;;;;;;;0.60;0.60;;;16.80;67.90;;;;;;5022257;28;20040;-23
2021/12/13 05:53:45;;;;;;;0.60;0.60;;;16.80;68.00;;;;;;5039120;28;20429;-30
2021/12/13 05:56:16;;;;;;;0.50;0.50;;;16.80;67.90;;;;;;5039063;28;20163;-26
2021/12/13 05:59:12;;;;;;;0.57;0.57;;;16.80;68.10;;;;;;5039064;28;20021;-24
2021/12/13 06:02:01;;;;;;;0.50;0.50;;;16.80;68.10;;;;;;5018629;28;20041;-25
2021/12/13 06:04:56;;;;;;;0.60;0.60;;;16.80;67.80;;;;;;5047419;28;20052;-27
2021/12/13 06:07:24;;;;;;;1.63;0.50;;;16.80;68.20;;;;;;5024339;28;20037;-24
2021/12/13 06:10:18;;;;;;;0.60;0.60;;;16.90;67.60;;;;;;5046387;28;20027;-28
2021/12/13 06:12:57;;;;;;;0.60;0.55;;;16.90;67.80;;;;;;5037331;28;20032;-24
2021/12/13 06:15:30;;;;;;;0.50;0.50;;;16.90;67.90;;;;;;5058345;28;20061;-31
2021/12/13 06:18:05;;;;;;;0.50;0.50;;;16.90;68.00;;;;;;5058004;28;20116;-29
2021/12/13 06:20:55;;;;;;;0.60;0.60;;;17.00;68.20;;;;;;4695889;28;10000100;-32
2021/12/13 06:23:31;;;;;;;0.55;0.55;;;17.00;67.70;;;;;;5055740;28;20025;-31
2021/12/13 06:26:03;;;;;;;0.60;0.60;;;17.00;68.20;;;;;;5056657;28;20539;-26
2021/12/13 06:28:34;;;;;;;0.50;0.50;;;17.00;68.00;;;;;;5052698;28;20028;-31
2021/12/13 06:31:16;;;;;;;0.52;0.52;;;16.90;68.20;;;;;;5053962;28;20017;-30
2021/12/13 06:33:51;;;;;;;1.05;0.50;;;17.00;68.20;;;;;;5058674;28;20041;-23
2021/12/13 06:36:26;;;;;;;0.47;0.47;;;17.00;68.10;;;;;;5053866;28;20116;-24
2021/12/13 06:39:03;;;;;;;0.65;0.65;;;17.10;68.10;;;;;;5054565;28;20537;-30
2021/12/13 06:41:29;;;;;;;0.60;0.60;;;17.00;68.00;;;;;;5038003;28;20037;-30
2021/12/13 06:44:24;;;;;;;0.40;0.40;;;17.00;68.00;;;;;;5053822;28;20032;-24
2021/12/13 06:46:53;;;;;;;0.73;0.63;;;17.10;67.90;;;;;;5041277;28;20042;-22
2021/12/13 06:49:35;;;;;;;1.40;0.57;;;17.10;67.90;;;;;;5034537;28;20054;-26
2021/12/13 06:52:01;;;;;;;0.50;0.50;;;17.10;68.00;;;;;;5036569;28;20490;-24
2021/12/13 06:54:33;;;;;;;0.60;0.60;;;17.10;67.90;;;;;;5035612;28;20045;-28
2021/12/13 06:57:43;;;;;;;0.77;0.40;;;17.00;67.90;;;;;;5036631;28;20061;-31
2021/12/13 07:00:20;;;;;;;1.23;0.50;;;17.00;67.90;;;;;;4993774;28;20157;-26
2021/12/13 07:03:07;;;;;;;0.43;0.43;;;17.00;67.90;;;;;;4977866;28;20133;-24
2021/12/13 07:05:40;;;;;;;1.55;0.57;;;17.00;67.90;;;;;;5008946;28;20242;-25
2021/12/13 07:08:09;;;;;;;1.27;0.50;;;17.00;68.60;;;;;;5016645;28;20065;-24
2021/12/13 07:10:34;;;;;;;0.70;0.65;;;17.00;67.80;;;;;;5024155;28;20045;-26
2021/12/13 07:13:03;;;;;;;2.72;0.55;;;17.00;67.80;;;;;;5036248;28;20037;-27
2021/12/13 07:15:34;;;;;;;0.50;0.50;;;17.00;67.70;;;;;;5035285;28;20045;-30
2021/12/13 07:18:40;;;;;;;0.70;0.60;;;17.10;67.50;;;;;;5036171;28;20049;-23
2021/12/13 07:21:10;;;;;;;0.50;0.50;;;17.10;67.50;;;;;;5018997;28;20049;-31
2021/12/13 07:23:52;;;;;;;0.45;0.43;;;17.10;67.40;;;;;;5035747;28;20064;-28
2021/12/13 07:26:30;;;;;;;0.60;0.60;;;17.10;67.40;;;;;;5035280;28;20518;-25
2021/12/13 07:28:56;;;;;;;0.47;0.47;;;17.00;67.30;;;;;;5031359;28;20049;-24
2021/12/13 07:31:22;;;;;;;1.73;0.60;;;17.00;67.30;;;;;;5030442;28;20046;-28
2021/12/13 07:33:47;;;;;;;0.98;0.55;;;17.10;67.30;;;;;;5042453;28;20397;-29
2021/12/13 07:36:23;;;;;;;0.60;0.60;;;17.10;67.30;;;;;;5059339;28;20044;-28
2021/12/13 07:38:57;;;;;;;2.03;0.68;;;17.00;67.50;;;;;;5031127;28;20080;-27
2021/12/13 07:41:26;;;;;;;0.30;0.30;;;17.00;67.80;;;;;;5034345;28;20124;-25
2021/12/13 07:43:52;;;;;;;0.40;0.40;;;17.00;67.70;;;;;;5033901;28;20042;-28
2021/12/13 07:46:18;;;;;;;0.63;0.38;;;17.00;67.80;;;;;;5025291;28;20049;-28
2021/12/13 07:48:43;;;;;;;0.40;0.40;;;17.00;68.00;;;;;;5018364;28;20722;-27
2021/12/13 07:51:15;;;;;;;1.02;0.50;;;17.00;68.10;;;;;;5016639;28;20072;-34
2021/12/13 07:53:43;;;;;;;0.98;0.50;;;17.00;68.20;;;;;;5034597;28;20482;-24
2021/12/13 07:56:11;;;;;;;1.33;0.43;;;17.00;68.50;;;;;;5043752;28;20407;-27
2021/12/13 07:58:44;;;;;;;1.13;0.60;;;17.10;68.40;;;;;;5039988;28;22146;-26
2021/12/13 08:01:24;;;;;;;2.60;0.70;;;17.10;68.60;;;;;;5034448;28;20076;-29
2021/12/13 08:03:59;;;;;;;0.93;0.47;;;17.10;68.40;;;;;;5049611;28;20045;-26
2021/12/13 08:06:47;;;;;;;1.10;0.43;;;17.10;68.40;;;;;;5042859;28;20042;-32
2021/12/13 08:09:18;;;;;;;1.05;0.57;;;17.00;68.40;;;;;;5033990;28;20049;-24
2021/12/13 08:12:03;;;;;;;1.48;0.60;;;17.00;68.30;;;;;;5034650;28;20053;-28
2021/12/13 08:14:37;;;;;;;1.35;0.50;;;17.00;68.40;;;;;;5033148;28;20033;-25
2021/12/13 08:17:32;;;;;;;2.70;0.60;;;17.00;68.20;;;;;;5032441;28;20038;-27
2021/12/13 08:20:06;;;;;;;1.98;0.50;;;17.00;68.40;;;;;;5014532;28;20049;-22
2021/12/13 08:22:31;;;;;;;0.90;0.50;;;17.00;68.20;;;;;;5034500;28;20041;-25
2021/12/13 08:25:07;;;;;;;0.75;0.47;;;17.00;68.20;;;;;;5034541;28;20132;-25
2021/12/13 08:27:41;;;;;;;0.30;0.30;;;17.00;68.20;;;;;;5034232;28;20457;-32
2021/12/13 08:30:31;;;;;;;1.27;0.52;;;17.00;68.20;;;;;;5020597;28;20049;-33
2021/12/13 08:33:24;;;;;;;2.15;0.60;;;17.10;68.20;;;;;;5024208;28;20067;-26
2021/12/13 08:35:56;;;;;;;0.77;0.60;;;17.00;68.30;;;;;;5050321;28;20049;-25
2021/12/13 08:38:30;;;;;;;2.67;0.70;;;17.10;68.10;;;;;;5054233;28;20052;-35
2021/12/13 08:40:56;;;;;;;0.60;0.60;;;17.10;68.10;;;;;;5055133;28;20448;-31
2021/12/13 08:43:33;;;;;;;0.57;0.57;;;17.10;68.00;;;;;;5054448;28;20041;-32
2021/12/13 08:45:58;;;;;;;0.50;0.50;;;17.10;68.10;;;;;;5054456;28;20048;-22
2021/12/13 08:48:24;;;;;;;1.00;0.45;;;17.10;68.00;;;;;;5054834;28;20469;-28
2021/12/13 08:50:52;;;;;;;0.40;0.40;;;17.10;67.80;;;;;;5057529;28;20067;-25
2021/12/13 08:53:24;;;;;;;1.67;0.50;;;17.10;67.90;;;;;;5059036;28;20045;-23
2021/12/13 08:55:58;;;;;;;0.77;0.50;;;17.00;68.10;;;;;;5057925;28;20079;-32
2021/12/13 08:58:23;;;;;;;0.60;0.60;;;17.10;68.80;;;;;;5058041;28;20524;-29
2021/12/13 09:00:59;;;;;;;0.43;0.30;;;17.10;67.90;;;;;;5040787;28;20053;-28
2021/12/13 09:03:27;;;;;;;1.02;0.60;;;17.10;67.80;;;;;;5022964;28;20048;-28
2021/12/13 09:06:11;;;;;;;0.50;0.50;;;17.10;67.80;;;;;;5036266;28;20056;-23
2021/12/13 09:08:51;;;;;;;0.43;0.40;;;17.10;67.80;;;;;;5038088;28;20030;-30
2021/12/13 09:11:20;;;;;;;0.50;0.50;;;17.10;67.70;;;;;;5050291;28;20095;-24
2021/12/13 09:14:05;;;;;;;1.55;0.50;;;17.10;67.70;;;;;;5050746;28;20049;-24
2021/12/13 09:16:40;;;;;;;0.50;0.50;;;17.10;67.60;;;;;;5054784;28;20459;-22
2021/12/13 09:19:16;;;;;;;2.05;0.45;;;17.10;67.70;;;;;;5053603;28;20045;-27
2021/12/13 09:22:12;;;;;;;0.30;0.30;;;17.10;67.80;;;;;;5046648;28;20049;-34
2021/12/13 09:24:48;;;;;;;0.50;0.50;;;17.10;67.70;;;;;;5036551;28;20476;-30
2021/12/13 09:27:19;;;;;;;0.40;0.40;;;17.10;67.60;;;;;;5018361;28;20054;-24
2021/12/13 09:29:55;;;;;;;0.88;0.40;;;17.10;67.60;;;;;;5017352;28;20069;-24
2021/12/13 09:32:23;;;;;;;0.60;0.40;;;17.10;67.60;;;;;;5033333;28;20077;-30
2021/12/13 09:34:52;;;;;;;0.25;0.25;;;17.10;67.60;;;;;;5017786;28;20042;-27
2021/12/13 09:37:17;;;;;;;0.47;0.45;;;17.10;67.60;;;;;;5018293;28;20046;-24
2021/12/13 09:39:43;;;;;;;0.82;0.40;;;17.10;67.60;;;;;;5017351;28;20133;-26
2021/12/13 09:42:11;;;;;;;1.20;0.40;;;17.20;67.40;;;;;;5050822;28;20041;-31
2021/12/13 09:44:44;;;;;;;0.55;0.40;;;17.10;67.50;;;;;;5037056;28;20514;-29
2021/12/13 09:47:12;;;;;;;0.63;0.50;;;17.10;67.50;;;;;;5037058;28;20034;-30
2021/12/13 09:49:45;;;;;;;0.43;0.43;;;17.10;67.30;;;;;;5036818;28;20053;-30
2021/12/13 09:52:32;;;;;;;1.02;0.50;;;17.20;67.40;;;;;;5037989;28;20041;-25
2021/12/13 09:55:03;;;;;;;0.45;0.40;;;17.10;67.30;;;;;;5037384;28;20115;-24
2021/12/13 09:57:51;;;;;;;0.45;0.45;;;17.20;67.10;;;;;;5037152;28;20057;-27
2021/12/13 10:00:22;;;;;;;6.80;0.95;;;17.10;67.20;;;;;;5035348;28;20045;-26
2021/12/13 10:02:50;;;;;;;3.35;0.60;;;17.10;67.30;;;;;;5037079;28;20041;-31
2021/12/13 10:05:21;;;;;;;0.98;0.50;;;17.10;67.30;;;;;;5037389;28;20068;-28
2021/12/13 10:07:50;;;;;;;0.93;0.32;;;17.20;67.30;;;;;;5037020;28;20055;-26
2021/12/13 10:10:20;;;;;;;0.75;0.40;;;17.10;67.30;;;;;;5052548;28;20041;-34
2021/12/13 10:12:50;;;;;;;29.95;1.55;;;17.10;67.50;;;;;;5036568;28;20510;-27
2021/12/13 10:15:28;;;;;;;33.67;1.27;;;17.30;68.50;;;;;;5034955;28;20107;-25
2021/12/13 10:17:57;;;;;;;0.60;0.57;;;17.30;67.00;;;;;;5044049;28;20052;-30
2021/12/13 10:20:32;;;;;;;1.10;0.38;;;17.10;67.20;;;;;;5035009;28;20525;-25
2021/12/13 10:22:58;;;;;;;0.40;0.40;;;17.10;67.30;;;;;;5036780;28;20065;-24
2021/12/13 10:25:38;;;;;;;0.30;0.30;;;17.10;67.40;;;;;;5037196;28;20050;-29
2021/12/13 10:28:09;;;;;;;0.60;0.60;;;17.10;67.30;;;;;;5042994;28;20041;-24
2021/12/13 10:30:38;;;;;;;3.50;0.40;;;17.10;67.50;;;;;;5021089;28;20041;-30
2021/12/13 10:33:03;;;;;;;0.82;0.40;;;17.10;67.30;;;;;;5042725;28;20524;-32
2021/12/13 10:35:31;;;;;;;0.70;0.50;;;17.10;67.30;;;;;;5056031;28;20041;-23
2021/12/13 10:38:12;;;;;;;0.70;0.70;;;17.10;67.40;;;;;;5056984;28;20083;-26
2021/12/13 10:40:55;;;;;;;0.77;0.50;;;17.10;67.40;;;;;;5056037;28;20072;-28
2021/12/13 10:43:31;;;;;;;0.35;0.35;;;17.00;67.50;;;;;;5050726;28;20136;-27
2021/12/13 10:46:07;;;;;;;0.35;0.35;;;17.00;67.50;;;;;;5036035;28;20041;-27
2021/12/13 10:48:35;;;;;;;0.38;0.38;;;17.00;67.40;;;;;;5035930;28;20053;-32
2021/12/13 10:51:21;;;;;;;0.40;0.40;;;17.10;67.30;;;;;;5036236;28;20045;-29
2021/12/13 10:53:47;;;;;;;0.30;0.30;;;17.10;67.30;;;;;;5027290;28;20102;-32
2021/12/13 10:56:27;;;;;;;0.95;0.60;;;17.00;67.40;;;;;;5014080;28;20565;-29
2021/12/13 10:58:55;;;;;;;0.57;0.50;;;17.00;67.50;;;;;;5014889;28;20046;-31
2021/12/13 11:01:26;;;;;;;2.72;0.63;;;17.00;67.40;;;;;;5016327;28;20044;-26
2021/12/13 11:03:52;;;;;;;0.43;0.38;;;17.00;67.30;;;;;;5015619;28;20057;-28
2021/12/13 11:06:19;;;;;;;0.43;0.43;;;17.00;67.40;;;;;;5016470;28;20046;-27
2021/12/13 11:08:45;;;;;;;1.65;0.30;;;17.00;67.30;;;;;;5015903;28;20045;-31
2021/12/13 11:11:21;;;;;;;1.75;0.35;;;17.00;68.10;;;;;;5016134;28;20046;-28
2021/12/13 11:13:52;;;;;;;0.40;0.40;;;17.00;67.20;;;;;;5015796;28;20600;-24
2021/12/13 11:16:29;;;;;;;0.40;0.40;;;17.00;67.30;;;;;;5016322;28;20069;-26
2021/12/13 11:18:55;;;;;;;0.45;0.43;;;17.00;67.20;;;;;;5035701;28;20045;-27
2021/12/13 11:21:24;;;;;;;0.40;0.40;;;17.00;67.10;;;;;;5043622;28;20045;-26
2021/12/13 11:23:49;;;;;;;0.30;0.30;;;17.00;67.10;;;;;;5055393;28;20114;-24
2021/12/13 11:26:17;;;;;;;0.30;0.30;;;16.90;67.10;;;;;;5055951;28;20040;-29
2021/12/13 11:28:42;;;;;;;0.57;0.30;;;17.00;67.10;;;;;;5054799;28;20049;-29
2021/12/13 11:31:28;;;;;;;0.25;0.20;;;17.00;67.10;;;;;;5048762;28;20041;-28
2021/12/13 11:34:01;;;;;;;0.30;0.30;;;16.90;67.10;;;;;;5026565;28;20044;-26
2021/12/13 11:37:08;;;;;;;0.30;0.30;;;16.90;67.10;;;;;;5055906;28;20043;-26
2021/12/13 11:39:48;;;;;;;0.30;0.30;;;16.90;67.00;;;;;;5040511;28;20509;-29
2021/12/13 11:42:38;;;;;;;0.30;0.30;;;16.90;67.00;;;;;;5036892;28;20045;-29
2021/12/13 11:45:13;;;;;;;0.38;0.30;;;16.90;67.10;;;;;;5041925;28;20038;-23
2021/12/13 11:47:53;;;;;;;0.40;0.20;;;16.90;67.00;;;;;;5035210;28;20505;-31
2021/12/13 11:50:40;;;;;;;1.13;0.38;;;16.90;67.00;;;;;;5035383;28;20045;-26
2021/12/13 11:53:30;;;;;;;0.30;0.30;;;16.90;66.90;;;;;;5035277;28;20045;-22
2021/12/13 11:56:33;;;;;;;0.30;0.30;;;16.90;66.90;;;;;;5035196;28;20510;-26
2021/12/13 11:59:25;;;;;;;0.40;0.40;;;16.90;66.90;;;;;;5035044;28;20383;-28
2021/12/13 12:02:03;;;;;;;0.35;0.35;;;16.90;66.80;;;;;;5034705;28;20069;-25
2021/12/13 12:04:55;;;;;;;0.20;0.20;;;16.90;66.90;;;;;;5035250;28;20085;-29
2021/12/13 12:08:05;;;;;;;0.43;0.30;;;16.90;66.90;;;;;;5019100;28;20141;-27
2021/12/13 12:10:50;;;;;;;0.40;0.40;;;16.90;66.80;;;;;;5033513;28;20041;-24
2021/12/13 12:13:20;;;;;;;;;;;16.90;66.80;;;;;;5035887;28;20041;-25
2021/12/13 12:15:45;;;;;;;0.30;0.25;;;16.90;66.80;;;;;;5034595;28;19913;-29
2021/12/13 12:18:20;;;;;;;0.13;0.13;;;16.90;66.60;;;;;;5035135;28;20048;-34
2021/12/13 12:20:48;;;;;;;0.30;0.30;;;16.90;66.70;;;;;;5037499;28;20057;-29
2021/12/13 12:23:28;;;;;;;0.22;0.22;;;16.90;66.70;;;;;;5054568;28;20052;-30
2021/12/13 12:25:54;;;;;;;0.50;0.30;;;16.90;66.70;;;;;;5054492;28;20060;-32
2021/12/13 12:28:20;;;;;;;0.20;0.20;;;16.90;66.70;;;;;;5037249;28;20052;-22
2021/12/13 12:30:50;;;;;;;0.22;0.22;;;16.90;66.70;;;;;;5050213;28;20445;-27
2021/12/13 12:33:26;;;;;;;0.30;0.30;;;16.90;66.70;;;;;;5042404;28;20135;-26
2021/12/13 12:35:51;;;;;;;0.30;0.30;;;16.90;66.70;;;;;;5054364;28;20086;-25
2021/12/13 12:38:42;;;;;;;0.30;0.30;;;16.90;66.60;;;;;;5055080;28;20044;-27
2021/12/13 12:41:13;;;;;;;0.20;0.20;;;16.90;66.50;;;;;;5061076;28;20047;-24
2021/12/13 12:43:41;;;;;;;0.20;0.20;;;16.90;66.50;;;;;;5054210;28;20057;-26
2021/12/13 12:46:13;;;;;;;1.35;0.30;;;16.90;66.40;;;;;;5054572;28;20041;-29
2021/12/13 12:48:52;;;;;;;0.30;0.30;;;16.90;66.50;;;;;;5054014;28;20057;-29
2021/12/13 12:51:27;;;;;;;0.35;0.35;;;16.90;66.40;;;;;;5054262;28;20041;-25
2021/12/13 12:54:03;;;;;;;0.30;0.30;;;16.90;66.50;;;;;;5054163;28;20045;-24
2021/12/13 12:56:31;;;;;;;0.25;0.25;;;16.90;66.50;;;;;;5054753;28;20048;-27
2021/12/13 12:59:08;;;;;;;0.20;0.20;;;16.90;66.30;;;;;;5054128;28;20044;-28
2021/12/13 13:01:38;;;;;;;0.20;0.20;;;16.90;66.30;;;;;;5053462;28;20502;-25
2021/12/13 13:04:06;;;;;;;0.40;0.40;;;16.90;66.50;;;;;;5054684;28;20045;-26
2021/12/13 13:06:32;;;;;;;0.20;0.20;;;16.90;66.50;;;;;;5054374;28;20052;-26
2021/12/13 13:08:57;;;;;;;0.30;0.30;;;16.90;66.70;;;;;;5053874;28;20049;-26
2021/12/13 13:11:34;;;;;;;0.20;0.20;;;16.80;66.50;;;;;;5053865;28;20041;-29
2021/12/13 13:14:09;;;;;;;0.20;0.20;;;16.80;66.50;;;;;;5053975;28;20072;-29
2021/12/13 13:16:36;;;;;;;0.35;0.35;;;16.80;66.40;;;;;;5053895;28;20094;-32
2021/12/13 13:19:03;;;;;;;0.57;0.38;;;16.80;66.70;;;;;;5054580;28;20073;-26
2021/12/13 13:21:28;;;;;;;0.35;0.20;;;16.90;66.60;;;;;;5045213;28;20042;-28
2021/12/13 13:23:59;;;;;;;0.30;0.30;;;16.90;66.60;;;;;;5034013;28;20490;-28
2021/12/13 13:26:27;;;;;;;0.57;0.40;;;16.90;66.50;;;;;;5034489;28;20560;-27
2021/12/13 13:28:55;;;;;;;0.20;0.20;;;16.90;66.60;;;;;;5034087;28;20048;-31
2021/12/13 13:31:23;;;;;;;0.35;0.35;;;16.80;66.70;;;;;;5036943;28;20069;-29
2021/12/13 13:33:52;;;;;;;0.30;0.30;;;16.80;66.60;;;;;;5045456;28;20052;-28